Time;durP1;ratioP1;P1;durP2;ratioP2;P2;SDS_P1;SDS_P2;PMS_P1;PMS_P2;Temp;Humidity;BMP_temperature;BMP_pressure;BME280_temperature;BME280_humidity;BME280_pressure;Samples;Min_cycle;Max_cycle;Signal;HPM_P1;HPM_P2
2023/07/25 00:00:33;;;;;;;10.00;3.28;;;14.00;99.90;;;;;;5034585;28;20045;-75
2023/07/25 00:02:59;;;;;;;13.23;3.20;;;14.00;99.90;;;;;;5034654;28;20391;-74
2023/07/25 00:05:25;;;;;;;15.50;3.50;;;14.00;99.90;;;;;;5034418;28;20045;-77
2023/07/25 00:07:51;;;;;;;8.80;3.38;;;14.00;99.90;;;;;;5034545;28;20077;-75
2023/07/25 00:10:18;;;;;;;9.55;2.97;;;14.10;99.90;;;;;;5034058;28;20045;-74
2023/07/25 00:12:44;;;;;;;11.30;2.78;;;14.00;99.90;;;;;;5033658;28;20060;-74
2023/07/25 00:15:10;;;;;;;11.70;3.35;;;14.10;99.90;;;;;;5033045;28;20041;-74
2023/07/25 00:17:36;;;;;;;10.48;3.15;;;14.00;99.90;;;;;;5034405;28;20403;-75
2023/07/25 00:20:02;;;;;;;8.48;2.97;;;14.00;99.90;;;;;;5033148;28;20038;-74
2023/07/25 00:22:27;;;;;;;9.55;3.40;;;14.00;99.90;;;;;;5032500;28;20470;-75
2023/07/25 00:24:53;;;;;;;11.95;3.10;;;14.00;99.90;;;;;;5032446;28;20128;-74
2023/07/25 00:27:19;;;;;;;8.70;2.90;;;13.90;99.90;;;;;;5032699;28;20049;-75
2023/07/25 00:29:46;;;;;;;8.25;3.03;;;13.90;99.90;;;;;;5034283;28;20061;-75
2023/07/25 00:32:12;;;;;;;8.30;2.90;;;14.00;99.90;;;;;;5033973;28;20631;-75
2023/07/25 00:34:37;;;;;;;13.25;3.53;;;13.90;99.90;;;;;;5034263;28;20049;-75
2023/07/25 00:37:03;;;;;;;11.70;3.30;;;13.90;99.90;;;;;;5033138;28;20096;-75
2023/07/25 00:39:29;;;;;;;8.15;3.10;;;13.90;99.90;;;;;;5033648;28;20045;-75
2023/07/25 00:41:55;;;;;;;8.35;3.22;;;13.90;99.90;;;;;;5033998;28;20162;-75
2023/07/25 00:44:20;;;;;;;9.07;3.15;;;14.00;99.90;;;;;;5016125;28;20053;-75
2023/07/25 00:46:46;;;;;;;10.60;3.45;;;13.90;99.90;;;;;;5033908;28;20087;-75
2023/07/25 00:49:12;;;;;;;10.48;3.08;;;13.90;99.90;;;;;;5032630;28;20049;-75
2023/07/25 00:51:38;;;;;;;11.10;3.03;;;13.90;99.90;;;;;;5032825;28;20049;-74
2023/07/25 00:54:03;;;;;;;7.65;2.90;;;13.90;99.90;;;;;;5032638;28;20471;-74
2023/07/25 00:56:29;;;;;;;9.35;2.58;;;13.90;99.90;;;;;;5033421;28;20045;-75
2023/07/25 00:58:55;;;;;;;8.32;3.08;;;13.90;99.90;;;;;;5032425;28;20539;-75
2023/07/25 01:01:21;;;;;;;8.15;3.08;;;13.90;99.90;;;;;;5033383;28;20049;-74
2023/07/25 01:03:47;;;;;;;9.77;3.03;;;13.80;99.90;;;;;;5032089;28;20090;-74
2023/07/25 01:06:15;;;;;;;11.32;3.30;;;13.80;99.90;;;;;;5032517;28;20107;-74
2023/07/25 01:08:54;;;;;;;11.90;3.40;;;13.80;99.90;;;;;;5032266;28;20045;-75
2023/07/25 01:11:21;;;;;;;12.15;4.03;;;13.80;99.90;;;;;;5031898;28;20056;-75
2023/07/25 01:13:48;;;;;;;8.10;3.10;;;13.80;99.90;;;;;;5032542;28;20049;-75
2023/07/25 01:16:27;;;;;;;11.00;3.40;;;13.70;99.90;;;;;;5049093;28;20091;-76
2023/07/25 01:18:54;;;;;;;15.48;3.28;;;13.80;99.90;;;;;;5035649;28;20072;-74
2023/07/25 01:21:24;;;;;;;6.25;3.05;;;13.70;99.90;;;;;;5036404;28;20060;-75
2023/07/25 01:23:50;;;;;;;11.32;3.53;;;13.80;99.90;;;;;;5034712;28;20152;-75
2023/07/25 01:26:18;;;;;;;11.35;3.60;;;13.80;99.90;;;;;;5032417;28;20156;-75
2023/07/25 01:28:44;;;;;;;10.57;3.47;;;13.80;99.90;;;;;;5034093;28;20139;-76
2023/07/25 01:31:10;;;;;;;11.25;4.00;;;13.80;99.90;;;;;;5033279;28;20084;-75
2023/07/25 01:33:36;;;;;;;11.35;3.55;;;13.90;99.90;;;;;;5031788;28;20088;-75
2023/07/25 01:36:02;;;;;;;7.05;3.10;;;13.90;99.90;;;;;;5031597;28;20119;-75
2023/07/25 01:38:28;;;;;;;9.73;3.78;;;13.90;99.90;;;;;;5031532;28;20482;-75
2023/07/25 01:40:53;;;;;;;8.38;2.95;;;13.90;99.90;;;;;;5032811;28;20046;-75
2023/07/25 01:43:19;;;;;;;12.63;3.22;;;13.90;99.90;;;;;;5031169;28;20394;-75
2023/07/25 01:45:45;;;;;;;10.52;4.00;;;13.90;99.90;;;;;;5031806;28;20041;-75
2023/07/25 01:48:10;;;;;;;10.80;3.60;;;14.00;99.90;;;;;;5032917;28;20556;-75
2023/07/25 01:50:36;;;;;;;8.98;3.13;;;14.00;99.90;;;;;;5032415;28;20045;-76
2023/07/25 01:53:02;;;;;;;8.05;3.33;;;14.10;99.90;;;;;;5032809;28;20391;-75
2023/07/25 01:55:27;;;;;;;12.98;3.60;;;14.00;99.90;;;;;;5031308;28;20053;-76
2023/07/25 01:57:53;;;;;;;11.70;3.60;;;14.10;99.90;;;;;;5031278;28;20402;-75
2023/07/25 02:00:19;;;;;;;7.97;3.00;;;14.10;99.90;;;;;;5030784;28;20056;-76
2023/07/25 02:02:44;;;;;;;9.95;3.50;;;14.10;99.90;;;;;;5032185;28;20051;-77
2023/07/25 02:05:10;;;;;;;7.22;2.72;;;14.10;99.90;;;;;;5031016;28;20049;-76
2023/07/25 02:07:36;;;;;;;11.35;3.85;;;14.10;99.90;;;;;;5032071;28;20698;-76
2023/07/25 02:10:02;;;;;;;7.93;2.88;;;14.10;99.90;;;;;;5032292;28;20045;-76
2023/07/25 02:12:30;;;;;;;12.57;3.47;;;14.10;99.90;;;;;;5031015;28;20395;-76
2023/07/25 02:14:55;;;;;;;9.68;3.83;;;14.10;99.90;;;;;;5032321;28;20053;-76
2023/07/25 02:17:21;;;;;;;11.68;3.30;;;14.00;99.90;;;;;;5030691;28;20399;-76
2023/07/25 02:19:47;;;;;;;10.27;3.67;;;14.00;99.90;;;;;;5032493;28;20056;-75
2023/07/25 02:22:12;;;;;;;12.07;3.80;;;14.00;99.90;;;;;;5032064;28;20087;-75
2023/07/25 02:24:38;;;;;;;10.45;3.78;;;14.00;99.90;;;;;;5031862;28;20123;-76
2023/07/25 02:27:04;;;;;;;12.50;3.35;;;14.10;99.90;;;;;;5032238;28;20103;-75
2023/07/25 02:29:30;;;;;;;12.38;3.10;;;14.00;99.90;;;;;;5031810;28;20052;-75
2023/07/25 02:31:56;;;;;;;11.63;3.67;;;14.10;99.90;;;;;;5031894;28;20050;-76
2023/07/25 02:34:22;;;;;;;7.80;3.10;;;14.10;99.90;;;;;;5030580;28;20376;-78
2023/07/25 02:36:47;;;;;;;11.65;3.03;;;14.10;99.90;;;;;;5031892;28;20376;-75
2023/07/25 02:39:13;;;;;;;10.57;3.30;;;14.10;99.90;;;;;;5031970;28;20099;-75
2023/07/25 02:41:38;;;;;;;9.20;3.20;;;14.10;99.90;;;;;;5031569;28;20056;-75
2023/07/25 02:44:04;;;;;;;7.15;2.88;;;14.20;99.90;;;;;;5030969;28;20403;-75
2023/07/25 02:46:30;;;;;;;9.77;3.17;;;14.10;99.90;;;;;;5032530;28;20045;-76
2023/07/25 02:48:56;;;;;;;7.55;2.85;;;14.10;99.90;;;;;;5036195;28;20057;-75
2023/07/25 02:51:22;;;;;;;9.20;3.40;;;14.10;99.90;;;;;;5035048;28;20045;-75
2023/07/25 02:53:47;;;;;;;10.30;3.28;;;14.20;99.90;;;;;;5035583;28;20042;-76
2023/07/25 02:56:13;;;;;;;10.98;3.28;;;14.20;99.90;;;;;;5035891;28;20510;-75
2023/07/25 02:58:39;;;;;;;13.65;3.60;;;14.20;99.90;;;;;;5034324;28;20084;-76
2023/07/25 03:01:04;;;;;;;8.48;3.20;;;14.20;99.90;;;;;;5018397;28;20084;-75
2023/07/25 03:03:30;;;;;;;10.93;3.58;;;14.20;99.90;;;;;;5034095;28;20050;-77
2023/07/25 03:05:56;;;;;;;12.15;3.17;;;14.20;99.90;;;;;;5035573;28;20049;-75
2023/07/25 03:08:21;;;;;;;8.85;3.17;;;14.40;99.90;;;;;;5035630;28;20045;-75
2023/07/25 03:10:47;;;;;;;11.13;3.15;;;14.30;99.90;;;;;;5035358;28;20038;-75
2023/07/25 03:13:13;;;;;;;10.45;3.03;;;14.30;99.90;;;;;;5001923;28;20172;-74
2023/07/25 03:15:39;;;;;;;8.93;3.22;;;14.30;99.90;;;;;;5035225;28;20045;-74
2023/07/25 03:18:05;;;;;;;7.70;3.05;;;14.20;99.90;;;;;;5035385;28;20049;-75
2023/07/25 03:20:30;;;;;;;14.50;3.33;;;14.30;99.90;;;;;;5035276;28;20046;-76
2023/07/25 03:22:56;;;;;;;7.40;2.70;;;14.20;99.90;;;;;;5035552;28;20402;-74
2023/07/25 03:25:22;;;;;;;6.72;2.83;;;14.20;99.90;;;;;;5034135;28;20054;-74
2023/07/25 03:27:48;;;;;;;9.55;2.80;;;14.20;99.90;;;;;;5033931;28;20614;-74
2023/07/25 03:30:14;;;;;;;9.05;2.85;;;14.20;99.90;;;;;;5035353;28;20053;-74
2023/07/25 03:32:39;;;;;;;10.90;3.17;;;14.20;99.90;;;;;;5035106;28;20037;-74
2023/07/25 03:35:06;;;;;;;6.70;2.53;;;14.20;99.90;;;;;;5036341;28;20042;-75
2023/07/25 03:37:31;;;;;;;12.55;3.83;;;14.30;99.90;;;;;;5035866;28;20045;-81
2023/07/25 03:39:57;;;;;;;11.65;3.22;;;14.20;99.90;;;;;;5038987;28;20055;-73
2023/07/25 03:42:23;;;;;;;8.23;2.72;;;14.20;99.90;;;;;;5035494;28;20084;-74
2023/07/25 03:44:48;;;;;;;10.93;3.13;;;14.20;99.90;;;;;;5034650;28;20500;-74
2023/07/25 03:47:14;;;;;;;9.57;3.03;;;14.30;99.90;;;;;;5036306;28;20080;-74
2023/07/25 03:49:40;;;;;;;10.43;2.85;;;14.20;99.90;;;;;;5034628;28;20045;-74
2023/07/25 03:52:06;;;;;;;8.30;2.90;;;14.20;99.90;;;;;;5033514;28;20045;-74
2023/07/25 03:54:32;;;;;;;10.30;3.38;;;14.20;99.90;;;;;;5033471;28;20049;-81
2023/07/25 03:56:57;;;;;;;8.38;3.35;;;14.20;99.90;;;;;;5032881;28;20099;-74
2023/07/25 03:59:23;;;;;;;9.05;3.25;;;14.30;99.90;;;;;;5034536;28;20045;-74
2023/07/25 04:01:49;;;;;;;12.05;3.30;;;14.20;99.90;;;;;;5016696;28;20048;-74
2023/07/25 04:04:15;;;;;;;8.40;3.58;;;14.40;99.90;;;;;;5033282;28;20049;-74
2023/07/25 04:06:40;;;;;;;11.05;3.83;;;14.20;99.90;;;;;;5033979;28;20522;-74
2023/07/25 04:09:06;;;;;;;21.88;3.88;;;14.20;99.90;;;;;;5034532;28;20057;-74
2023/07/25 04:11:32;;;;;;;10.50;3.45;;;14.20;99.90;;;;;;5033283;28;20052;-74
2023/07/25 04:13:58;;;;;;;10.25;3.75;;;14.10;99.90;;;;;;5034055;28;20084;-74
2023/07/25 04:16:23;;;;;;;12.50;3.60;;;14.20;99.90;;;;;;5033335;28;20045;-75
2023/07/25 04:18:49;;;;;;;8.98;3.13;;;14.10;99.90;;;;;;5033835;28;20072;-75
2023/07/25 04:21:15;;;;;;;8.70;3.60;;;14.10;99.90;;;;;;5034339;28;20041;-75
2023/07/25 04:23:41;;;;;;;9.40;3.58;;;14.10;99.90;;;;;;5032693;28;20475;-75
2023/07/25 04:26:07;;;;;;;13.98;3.35;;;14.00;99.90;;;;;;5032748;28;20084;-73
2023/07/25 04:28:33;;;;;;;8.60;3.35;;;14.00;99.90;;;;;;5033829;28;20495;-74
2023/07/25 04:30:58;;;;;;;10.77;3.72;;;14.00;99.90;;;;;;5032623;28;20053;-73
2023/07/25 04:33:24;;;;;;;10.07;3.53;;;14.00;99.90;;;;;;5034026;28;20041;-74
2023/07/25 04:35:50;;;;;;;9.73;3.30;;;14.00;99.90;;;;;;5033595;28;20076;-74
2023/07/25 04:38:16;;;;;;;9.40;3.33;;;14.00;99.90;;;;;;5034021;28;20045;-74
2023/07/25 04:40:45;;;;;;;13.73;3.78;;;14.00;99.90;;;;;;5033633;28;20049;-75
2023/07/25 04:43:11;;;;;;;8.40;2.83;;;14.10;99.90;;;;;;5033853;28;20041;-74
2023/07/25 04:45:37;;;;;;;7.30;2.70;;;14.10;99.90;;;;;;5033668;28;20550;-75
2023/07/25 04:48:03;;;;;;;16.02;3.13;;;14.20;99.90;;;;;;5033539;28;20045;-74
2023/07/25 04:50:29;;;;;;;11.80;3.50;;;14.30;99.90;;;;;;5033707;28;20195;-74
2023/07/25 04:52:55;;;;;;;10.60;2.78;;;14.50;99.90;;;;;;5032140;28;20141;-74
2023/07/25 04:55:21;;;;;;;7.05;2.88;;;14.80;99.90;;;;;;5033593;28;20184;-73
2023/07/25 04:57:49;;;;;;;7.85;2.60;;;15.20;99.90;;;;;;5033161;28;20077;-74
2023/07/25 05:00:14;;;;;;;8.77;2.90;;;15.70;99.90;;;;;;5016052;28;20128;-75
2023/07/25 05:02:41;;;;;;;7.93;2.22;;;16.00;99.90;;;;;;5033343;28;20133;-78
2023/07/25 05:05:07;;;;;;;7.70;2.33;;;16.00;99.90;;;;;;5033317;28;20053;-74
2023/07/25 05:07:33;;;;;;;7.25;2.30;;;15.90;99.90;;;;;;5033341;28;20081;-74
2023/07/25 05:09:58;;;;;;;9.10;2.42;;;15.70;99.90;;;;;;5031949;28;20088;-72
2023/07/25 05:12:24;;;;;;;12.80;2.85;;;15.60;99.90;;;;;;5015860;28;20053;-73
2023/07/25 05:14:50;;;;;;;9.98;2.83;;;15.40;99.90;;;;;;5032975;28;20080;-74
2023/07/25 05:17:15;;;;;;;8.23;2.35;;;15.30;99.90;;;;;;5033255;28;20098;-73
2023/07/25 05:19:41;;;;;;;11.25;2.60;;;15.10;99.90;;;;;;5015718;28;20045;-73
2023/07/25 05:22:07;;;;;;;6.95;2.40;;;15.10;99.90;;;;;;5032754;28;20088;-78
2023/07/25 05:24:33;;;;;;;9.20;2.60;;;15.00;99.90;;;;;;5032862;28;20050;-74
2023/07/25 05:26:59;;;;;;;10.73;2.67;;;15.00;99.90;;;;;;5032697;28;20333;-73
2023/07/25 05:29:24;;;;;;;7.35;2.47;;;14.90;99.90;;;;;;5033153;28;20056;-73
2023/07/25 05:31:50;;;;;;;7.68;2.15;;;14.90;99.90;;;;;;5032720;28;20131;-74
2023/07/25 05:34:16;;;;;;;13.68;2.90;;;15.20;99.90;;;;;;5032680;28;20601;-73
2023/07/25 05:36:41;;;;;;;6.00;2.22;;;16.00;99.90;;;;;;5033820;28;20414;-73
2023/07/25 05:39:07;;;;;;;8.73;2.35;;;17.00;99.90;;;;;;5031545;28;20045;-73
2023/07/25 05:41:33;;;;;;;5.78;2.08;;;17.70;99.90;;;;;;5032910;28;20052;-75
2023/07/25 05:43:58;;;;;;;6.18;2.40;;;18.10;99.90;;;;;;5032334;28;20131;-74
2023/07/25 05:46:24;;;;;;;6.97;2.28;;;18.00;99.90;;;;;;5031428;28;20191;-74
2023/07/25 05:48:50;;;;;;;11.63;2.50;;;17.60;99.90;;;;;;5032343;28;20050;-77
2023/07/25 05:51:15;;;;;;;8.30;2.25;;;17.30;99.90;;;;;;5033149;28;20125;-75
2023/07/25 05:53:41;;;;;;;8.18;2.17;;;17.10;99.90;;;;;;5033776;28;20518;-74
2023/07/25 05:56:07;;;;;;;9.65;2.50;;;17.00;99.90;;;;;;5034785;28;20049;-74
2023/07/25 05:58:32;;;;;;;6.63;2.17;;;17.20;99.90;;;;;;5032840;28;20045;-74
2023/07/25 06:00:59;;;;;;;7.85;2.40;;;17.70;99.90;;;;;;5032359;28;20060;-75
2023/07/25 06:03:24;;;;;;;6.13;1.95;;;18.40;99.90;;;;;;5031799;28;20403;-75
2023/07/25 06:05:50;;;;;;;10.00;2.40;;;18.90;99.90;;;;;;5030990;28;20041;-79
2023/07/25 06:08:16;;;;;;;5.82;2.15;;;19.60;99.90;;;;;;5032074;28;20053;-75
2023/07/25 06:10:42;;;;;;;9.20;2.55;;;20.50;99.90;;;;;;5032500;28;20124;-75
2023/07/25 06:13:08;;;;;;;9.27;2.17;;;21.30;99.90;;;;;;5031977;28;20493;-76
2023/07/25 06:15:34;;;;;;;5.43;1.83;;;21.90;99.90;;;;;;5032027;28;20087;-76
2023/07/25 06:18:04;;;;;;;5.43;1.80;;;22.40;99.90;;;;;;5030586;28;20103;-75
2023/07/25 06:20:33;;;;;;;7.63;1.95;;;22.90;99.90;;;;;;5032111;28;20049;-75
2023/07/25 06:23:00;;;;;;;13.70;2.13;;;23.30;99.90;;;;;;5047132;28;20041;-76
2023/07/25 06:25:26;;;;;;;7.45;2.08;;;23.60;99.90;;;;;;5032217;28;20045;-75
2023/07/25 06:27:52;;;;;;;7.38;1.88;;;23.90;97.50;;;;;;5032084;28;20474;-75
2023/07/25 06:30:18;;;;;;;8.18;1.92;;;24.00;98.40;;;;;;5030685;28;20138;-76
2023/07/25 06:32:44;;;;;;;4.82;1.70;;;24.30;98.80;;;;;;5031228;28;20537;-75
2023/07/25 06:35:09;;;;;;;9.25;1.70;;;24.40;97.20;;;;;;5030530;28;20113;-77
2023/07/25 06:37:36;;;;;;;7.55;1.60;;;24.60;97.50;;;;;;5031923;28;20072;-77
2023/07/25 06:40:03;;;;;;;5.28;1.52;;;24.80;96.80;;;;;;5030456;28;20056;-72
2023/07/25 06:42:29;;;;;;;5.82;1.33;;;25.20;95.90;;;;;;5032159;28;20053;-72
2023/07/25 06:44:56;;;;;;;8.18;1.92;;;25.40;95.80;;;;;;5031685;28;20041;-74
2023/07/25 06:47:22;;;;;;;5.57;1.50;;;25.50;94.20;;;;;;5047195;28;20095;-74
2023/07/25 06:49:48;;;;;;;4.32;1.40;;;25.60;95.00;;;;;;5031601;28;20514;-73
2023/07/25 06:52:14;;;;;;;6.93;1.48;;;25.80;95.30;;;;;;5031436;28;20084;-73
2023/07/25 06:54:40;;;;;;;10.90;1.80;;;26.00;94.60;;;;;;5014414;28;20049;-74
2023/07/25 06:57:06;;;;;;;4.88;1.50;;;26.20;94.50;;;;;;5030405;28;20057;-74
2023/07/25 06:59:32;;;;;;;9.73;1.83;;;26.30;93.80;;;;;;5031672;28;20045;-74
2023/07/25 07:01:58;;;;;;;6.03;1.75;;;26.40;93.60;;;;;;5030492;28;20049;-74
2023/07/25 07:04:24;;;;;;;6.60;1.75;;;26.60;93.10;;;;;;5031538;28;20625;-72
2023/07/25 07:06:49;;;;;;;6.07;1.60;;;26.40;92.80;;;;;;5030642;28;20447;-74
2023/07/25 07:09:15;;;;;;;6.97;1.65;;;26.00;92.90;;;;;;5013817;28;20089;-73
2023/07/25 07:11:41;;;;;;;5.93;1.17;;;26.00;92.60;;;;;;5030340;28;20041;-74
2023/07/25 07:14:07;;;;;;;6.85;1.60;;;25.90;92.70;;;;;;5031252;28;20046;-74
2023/07/25 07:16:33;;;;;;;6.50;1.50;;;25.80;93.00;;;;;;5030775;28;20041;-74
2023/07/25 07:18:59;;;;;;;4.25;1.00;;;25.50;92.80;;;;;;5030821;28;20390;-81
2023/07/25 07:21:24;;;;;;;7.38;1.38;;;25.50;92.60;;;;;;5031507;28;20107;-80
2023/07/25 07:23:50;;;;;;;6.05;1.50;;;25.80;92.90;;;;;;5031911;28;20570;-74
2023/07/25 07:26:16;;;;;;;8.32;1.13;;;26.40;92.90;;;;;;5030917;28;20065;-81
2023/07/25 07:28:41;;;;;;;4.78;1.30;;;26.90;92.10;;;;;;5032253;28;20053;-80
2023/07/25 07:31:09;;;;;;;6.00;1.13;;;26.90;91.60;;;;;;5029979;28;20049;-82
2023/07/25 07:33:35;;;;;;;5.97;1.55;;;27.00;91.60;;;;;;5034587;28;20067;-83
2023/07/25 07:36:01;;;;;;;5.82;1.42;;;26.50;90.60;;;;;;5034189;28;20107;-80
2023/07/25 07:38:27;;;;;;;2.72;0.95;;;26.00;91.10;;;;;;5033428;28;20529;-84
2023/07/25 07:40:53;;;;;;;5.80;1.40;;;25.40;91.60;;;;;;5036327;28;20084;-80
2023/07/25 07:43:19;;;;;;;4.07;1.23;;;25.70;91.30;;;;;;5017191;28;20060;-81
2023/07/25 07:45:45;;;;;;;3.88;1.38;;;26.10;90.70;;;;;;5035415;28;20046;-82
2023/07/25 07:48:11;;;;;;;4.40;1.17;;;26.30;90.70;;;;;;5034945;28;20394;-81
2023/07/25 07:50:37;;;;;;;3.72;1.20;;;25.70;90.60;;;;;;5035187;28;20141;-81
2023/07/25 07:53:03;;;;;;;3.08;1.02;;;25.80;90.80;;;;;;5033318;28;20046;-81
2023/07/25 07:55:30;;;;;;;5.28;1.23;;;26.20;90.90;;;;;;5034601;28;20182;-80
2023/07/25 07:57:55;;;;;;;4.97;1.38;;;26.80;89.80;;;;;;5035068;28;20128;-83
2023/07/25 08:00:23;;;;;;;3.83;1.42;;;27.10;90.30;;;;;;5033292;28;20080;-80
2023/07/25 08:02:50;;;;;;;9.25;1.65;;;27.10;89.80;;;;;;5034577;28;20045;-82
2023/07/25 08:05:16;;;;;;;4.78;1.40;;;26.60;89.50;;;;;;5033641;28;20052;-82
2023/07/25 08:07:42;;;;;;;3.78;1.55;;;25.80;90.30;;;;;;5040024;28;20401;-81
2023/07/25 08:10:08;;;;;;;4.60;1.60;;;25.20;90.90;;;;;;5040733;28;20053;-82
2023/07/25 08:12:34;;;;;;;4.63;1.40;;;24.90;91.20;;;;;;5026498;28;20045;-81
2023/07/25 08:15:00;;;;;;;2.97;1.10;;;24.90;91.50;;;;;;5036599;28;20041;-80
2023/07/25 08:17:25;;;;;;;6.05;1.50;;;25.30;91.60;;;;;;5034881;28;20047;-82
2023/07/25 08:19:51;;;;;;;6.60;1.58;;;26.00;91.30;;;;;;5017253;28;20488;-81
2023/07/25 08:22:17;;;;;;;5.25;1.45;;;26.80;90.70;;;;;;5033185;28;20046;-84
2023/07/25 08:24:43;;;;;;;4.10;1.42;;;27.40;89.30;;;;;;5034039;28;20178;-82
2023/07/25 08:27:09;;;;;;;9.38;1.30;;;27.70;88.60;;;;;;5034403;28;20042;-83
2023/07/25 08:29:39;;;;;;;5.28;1.33;;;27.30;90.00;;;;;;5033175;28;20132;-83
2023/07/25 08:32:06;;;;;;;6.38;1.40;;;27.30;90.10;;;;;;5033502;28;20049;-82
2023/07/25 08:34:32;;;;;;;5.13;1.33;;;26.40;90.20;;;;;;5032583;28;20671;-82
2023/07/25 08:36:57;;;;;;;5.65;1.30;;;25.90;90.50;;;;;;5033008;28;20049;-80
2023/07/25 08:39:23;;;;;;;6.88;1.10;;;25.50;91.00;;;;;;5033593;28;20092;-83
2023/07/25 08:41:53;;;;;;;3.05;1.27;;;25.10;91.30;;;;;;5033495;28;20054;-82
2023/07/25 08:44:23;;;;;;;6.85;1.17;;;24.70;91.50;;;;;;5032823;28;20057;-81
2023/07/25 08:46:53;;;;;;;10.30;1.50;;;24.00;91.50;;;;;;5034536;28;20126;-81
2023/07/25 08:49:25;;;;;;;6.78;1.63;;;23.90;92.30;;;;;;5034859;28;20399;-80
2023/07/25 08:51:53;;;;;;;6.97;1.60;;;24.10;91.80;;;;;;5034071;28;20050;-80
2023/07/25 08:54:35;;;;;;;5.65;1.55;;;25.00;90.80;;;;;;5048999;28;20049;-81
2023/07/25 08:57:02;;;;;;;4.72;1.27;;;25.70;90.50;;;;;;5033656;28;20045;-82
2023/07/25 08:59:28;;;;;;;5.15;1.40;;;26.30;90.00;;;;;;5032418;28;20060;-81
2023/07/25 09:01:54;;;;;;;6.32;1.40;;;26.20;90.40;;;;;;5032358;28;20510;-82
2023/07/25 09:04:22;;;;;;;4.25;1.30;;;26.80;90.70;;;;;;5032370;28;20042;-81
2023/07/25 09:06:48;;;;;;;5.72;1.40;;;27.00;88.90;;;;;;5033953;28;20045;-82
2023/07/25 09:09:14;;;;;;;4.85;1.23;;;26.80;87.80;;;;;;5033721;28;20421;-82
2023/07/25 09:11:40;;;;;;;3.25;1.40;;;26.20;89.00;;;;;;5015645;28;20049;-80
2023/07/25 09:14:06;;;;;;;4.40;1.10;;;26.20;90.00;;;;;;5033886;28;20041;-81
2023/07/25 09:16:33;;;;;;;5.53;1.42;;;26.30;88.50;;;;;;5033586;28;20095;-81
2023/07/25 09:18:58;;;;;;;4.07;1.30;;;25.80;89.60;;;;;;5033504;28;20386;-80
2023/07/25 09:21:24;;;;;;;3.97;1.20;;;25.50;90.40;;;;;;5033162;28;20041;-80
2023/07/25 09:24:00;;;;;;;3.70;1.10;;;25.70;91.00;;;;;;5033263;28;20372;-80
2023/07/25 09:26:30;;;;;;;7.65;1.30;;;25.80;89.40;;;;;;5016000;28;20061;-82
2023/07/25 09:28:59;;;;;;;4.65;1.23;;;25.50;90.10;;;;;;5034787;28;20068;-82
2023/07/25 09:31:26;;;;;;;6.68;1.50;;;25.20;90.10;;;;;;5032820;28;20087;-82
2023/07/25 09:33:54;;;;;;;6.50;1.60;;;24.90;91.30;;;;;;5032365;28;20052;-82
2023/07/25 09:36:20;;;;;;;5.75;1.33;;;24.80;92.00;;;;;;5033230;28;20395;-79
2023/07/25 09:38:55;;;;;;;6.65;1.77;;;24.40;92.00;;;;;;5031688;28;20149;-78
2023/07/25 09:41:22;;;;;;;6.50;1.73;;;24.40;92.30;;;;;;5031802;28;20053;-78
2023/07/25 09:43:49;;;;;;;5.85;1.52;;;24.00;92.20;;;;;;5031692;28;20088;-82
2023/07/25 09:46:14;;;;;;;6.00;1.55;;;23.90;92.80;;;;;;5032890;28;20407;-82
2023/07/25 09:48:45;;;;;;;4.72;1.50;;;23.90;93.10;;;;;;5031189;28;20041;-79
2023/07/25 09:51:11;;;;;;;6.32;1.48;;;23.60;93.20;;;;;;5031878;28;20037;-79
2023/07/25 09:53:40;;;;;;;4.57;1.30;;;23.90;93.20;;;;;;5031238;28;20399;-81
2023/07/25 09:56:07;;;;;;;5.03;1.48;;;24.30;92.70;;;;;;5031511;28;20110;-81
2023/07/25 09:58:33;;;;;;;5.00;1.10;;;24.60;92.30;;;;;;5031110;28;20045;-81
2023/07/25 10:01:00;;;;;;;6.20;1.55;;;24.50;92.20;;;;;;5031585;28;20045;-81
2023/07/25 10:03:28;;;;;;;4.78;1.38;;;24.40;91.70;;;;;;5031062;28;20049;-81
2023/07/25 10:05:54;;;;;;;6.03;1.40;;;23.80;92.20;;;;;;5032379;28;20045;-81
2023/07/25 10:08:21;;;;;;;5.05;1.63;;;23.60;92.20;;;;;;5032866;28;20183;-80
2023/07/25 10:10:48;;;;;;;6.15;1.40;;;23.60;92.50;;;;;;5033391;28;20045;-80
2023/07/25 10:13:14;;;;;;;4.07;1.50;;;23.70;92.90;;;;;;5032589;28;20044;-80
2023/07/25 10:15:41;;;;;;;5.72;1.40;;;23.50;92.60;;;;;;5032242;28;20057;-80
2023/07/25 10:18:22;;;;;;;5.43;1.40;;;23.50;92.50;;;;;;5048022;28;20107;-81
2023/07/25 10:20:52;;;;;;;6.93;1.60;;;23.30;92.70;;;;;;5031065;28;20094;-81
2023/07/25 10:23:19;;;;;;;3.72;1.23;;;23.00;93.10;;;;;;5048251;28;20048;-80
2023/07/25 10:25:45;;;;;;;4.47;1.27;;;23.00;92.70;;;;;;5016482;28;20127;-80
2023/07/25 10:28:12;;;;;;;4.65;1.33;;;22.90;92.70;;;;;;5041511;28;20041;-79
2023/07/25 10:30:45;;;;;;;3.42;1.50;;;23.00;92.50;;;;;;5023129;28;20132;-80
2023/07/25 10:33:13;;;;;;;4.28;1.23;;;22.90;92.00;;;;;;5035369;28;20049;-79
2023/07/25 10:35:52;;;;;;;5.20;1.48;;;23.00;92.50;;;;;;5031760;28;20106;-80
2023/07/25 10:38:34;;;;;;;6.00;1.60;;;23.10;92.20;;;;;;5032351;28;20089;-80
2023/07/25 10:41:08;;;;;;;5.20;1.42;;;22.90;92.30;;;;;;5032257;28;20053;-79
2023/07/25 10:43:46;;;;;;;;;;;22.80;92.50;;;;;;5032226;28;20085;-80
2023/07/25 10:46:19;;;;;;;7.72;1.70;;;22.60;92.40;;;;;;5032428;28;19921;-80
2023/07/25 10:48:46;;;;;;;;;;;22.70;93.00;;;;;;5031184;28;20041;-80
2023/07/25 10:51:16;;;;;;;5.45;1.40;;;22.50;92.90;;;;;;5032059;28;19921;-80
2023/07/25 10:54:07;;;;;;;6.78;1.63;;;22.60;92.70;;;;;;5030580;28;20399;-81
2023/07/25 10:56:33;;;;;;;4.38;1.40;;;22.70;92.70;;;;;;5023047;28;20402;-80
2023/07/25 10:59:12;;;;;;;6.45;1.40;;;22.70;93.00;;;;;;5031140;28;20052;-80
2023/07/25 11:01:48;;;;;;;3.13;1.08;;;23.00;92.60;;;;;;5030683;28;20175;-81
2023/07/25 11:04:26;;;;;;;5.45;1.40;;;23.00;92.80;;;;;;5030568;28;20041;-81
2023/07/25 11:06:58;;;;;;;3.83;1.10;;;22.90;93.30;;;;;;5031645;28;20044;-78
2023/07/25 11:09:25;;;;;;;4.85;1.55;;;22.80;93.30;;;;;;5036041;28;20045;-80
2023/07/25 11:11:53;;;;;;;6.03;1.45;;;22.40;92.30;;;;;;5035499;28;20049;-80
2023/07/25 11:14:20;;;;;;;5.32;1.40;;;22.40;92.90;;;;;;5034579;28;20367;-80
2023/07/25 11:16:48;;;;;;;3.33;1.20;;;22.30;92.40;;;;;;5035213;28;20416;-79
2023/07/25 11:19:14;;;;;;;5.20;1.33;;;22.30;93.00;;;;;;5051289;28;20053;-79
2023/07/25 11:21:42;;;;;;;4.85;1.33;;;22.30;92.80;;;;;;5017780;28;20057;-80
2023/07/25 11:24:09;;;;;;;6.55;1.50;;;22.30;93.20;;;;;;5034164;28;20513;-79
2023/07/25 11:26:37;;;;;;;4.18;1.23;;;22.20;92.70;;;;;;5033690;28;20065;-80
2023/07/25 11:29:13;;;;;;;4.80;1.35;;;22.20;93.20;;;;;;5034365;28;20046;-79
2023/07/25 11:31:45;;;;;;;5.65;1.45;;;22.50;93.20;;;;;;5035238;28;20118;-80
2023/07/25 11:34:14;;;;;;;10.13;1.50;;;22.60;93.40;;;;;;5035076;28;20057;-79
2023/07/25 11:36:41;;;;;;;5.18;1.52;;;22.40;93.50;;;;;;5034993;28;20049;-80
2023/07/25 11:39:08;;;;;;;4.65;1.20;;;22.30;93.70;;;;;;5034339;28;20071;-80
2023/07/25 11:41:35;;;;;;;5.07;1.30;;;22.00;93.90;;;;;;5034899;28;20464;-81
2023/07/25 11:44:14;;;;;;;5.95;1.48;;;21.90;93.80;;;;;;5017221;28;20537;-79
2023/07/25 11:46:42;;;;;;;3.10;1.25;;;22.10;93.80;;;;;;5050169;28;20134;-79
2023/07/25 11:49:10;;;;;;;4.88;1.30;;;21.90;93.90;;;;;;5034135;28;20064;-79
2023/07/25 11:51:37;;;;;;;6.55;1.20;;;21.90;93.20;;;;;;5034897;28;20593;-79
2023/07/25 11:54:04;;;;;;;4.60;1.38;;;22.00;93.70;;;;;;5034770;28;20068;-80
2023/07/25 11:56:31;;;;;;;3.20;0.80;;;22.00;93.40;;;;;;5035223;28;20470;-79
2023/07/25 11:58:58;;;;;;;3.20;1.20;;;22.20;93.30;;;;;;5033433;28;20112;-80
2023/07/25 12:01:29;;;;;;;4.90;1.25;;;22.30;92.50;;;;;;5034957;28;20095;-79
2023/07/25 12:03:55;;;;;;;4.07;1.20;;;22.40;91.90;;;;;;5034481;28;20048;-80
2023/07/25 12:06:32;;;;;;;4.53;1.20;;;22.50;92.00;;;;;;5034395;28;20566;-80
2023/07/25 12:08:59;;;;;;;3.88;1.17;;;22.60;92.80;;;;;;5034352;28;20049;-80
2023/07/25 12:11:25;;;;;;;3.30;1.02;;;22.60;92.10;;;;;;5033707;28;20059;-80
2023/07/25 12:13:56;;;;;;;6.10;1.65;;;22.30;92.50;;;;;;5033345;28;20132;-80
2023/07/25 12:16:35;;;;;;;5.97;1.30;;;22.30;93.00;;;;;;5034691;28;20530;-80
2023/07/25 12:19:08;;;;;;;3.17;1.10;;;22.30;93.00;;;;;;5033083;28;20076;-80
2023/07/25 12:21:36;;;;;;;3.65;1.10;;;22.10;92.30;;;;;;5033810;28;20077;-80
2023/07/25 12:24:07;;;;;;;3.00;1.20;;;22.20;92.60;;;;;;5033047;28;20041;-80
2023/07/25 12:26:43;;;;;;;5.65;1.35;;;22.30;92.40;;;;;;5049979;28;20554;-81
2023/07/25 12:29:17;;;;;;;2.33;1.10;;;22.30;92.40;;;;;;5033370;28;20060;-80
2023/07/25 12:31:43;;;;;;;3.22;1.10;;;22.30;92.60;;;;;;5033449;28;20431;-81
2023/07/25 12:34:09;;;;;;;3.33;1.10;;;22.30;92.80;;;;;;5017030;28;20045;-80
2023/07/25 12:36:35;;;;;;;6.55;1.45;;;22.50;92.80;;;;;;5033346;28;20132;-80
2023/07/25 12:39:00;;;;;;;8.13;1.75;;;22.40;92.20;;;;;;5034145;28;20045;-80
2023/07/25 12:41:26;;;;;;;9.45;1.70;;;22.40;92.90;;;;;;5037469;28;20083;-80
2023/07/25 12:43:52;;;;;;;5.55;1.30;;;22.60;92.80;;;;;;5041647;28;20059;-79